createdAt,value
2022-07-30T00:04:30.987Z,19.10
2022-07-30T00:09:34.294Z,19.14
2022-07-30T00:14:39.268Z,19.08
2022-07-30T00:19:42.377Z,19.11
2022-07-30T00:24:47.085Z,19.05
2022-07-30T00:29:51.544Z,19.22
2022-07-30T00:34:54.898Z,19.14
2022-07-30T00:39:57.869Z,19.13
2022-07-30T00:45:02.212Z,19.12
2022-07-30T00:50:07.744Z,19.09
2022-07-30T00:55:12.779Z,19.09
2022-07-30T01:00:18.300Z,19.07
2022-07-30T01:05:21.717Z,19.01
2022-07-30T01:10:25.366Z,19.03
2022-07-30T01:15:30.621Z,18.96
2022-07-30T01:20:38.541Z,18.95
2022-07-30T01:25:55.680Z,18.96
2022-07-30T01:31:00.580Z,18.98
2022-07-30T01:36:04.847Z,18.91
2022-07-30T01:41:11.415Z,18.97
2022-07-30T01:46:16.869Z,18.91
2022-07-30T01:51:20.403Z,18.82
2022-07-30T01:56:26.691Z,18.83
2022-07-30T02:01:29.869Z,18.73
2022-07-30T02:06:37.674Z,18.78
2022-07-30T02:12:03.840Z,18.73
2022-07-30T02:17:19.112Z,18.69
2022-07-30T02:22:24.209Z,18.59
2022-07-30T02:27:33.918Z,18.56
2022-07-30T02:32:41.205Z,18.48
2022-07-30T02:37:47.423Z,18.43
2022-07-30T02:42:53.608Z,18.13
2022-07-30T02:48:00.558Z,17.92
2022-07-30T02:53:05.530Z,17.85
2022-07-30T02:58:11.948Z,17.77
2022-07-30T03:03:16.794Z,17.40
2022-07-30T03:08:20.545Z,17.44
2022-07-30T03:13:25.845Z,17.43
2022-07-30T03:18:34.691Z,17.30
2022-07-30T03:23:38.662Z,17.31
2022-07-30T03:28:44.306Z,17.30
2022-07-30T03:33:47.979Z,17.38
2022-07-30T03:38:51.455Z,17.22
2022-07-30T03:43:56.591Z,17.09
2022-07-30T03:49:01.134Z,17.08
2022-07-30T03:54:13.304Z,17.13
2022-07-30T03:59:18.396Z,17.05
2022-07-30T04:04:21.509Z,17.08
2022-07-30T04:09:25.028Z,17.22
2022-07-30T04:14:39.587Z,17.32
2022-07-30T04:19:47.293Z,17.31
2022-07-30T04:24:52.473Z,17.41
2022-07-30T04:29:57.651Z,17.32
2022-07-30T04:35:00.896Z,17.30
2022-07-30T04:40:04.610Z,17.38
2022-07-30T04:45:11.707Z,17.36
2022-07-30T04:50:17.124Z,17.49
2022-07-30T04:55:21.229Z,17.54
2022-07-30T05:00:26.012Z,17.70
2022-07-30T05:05:32.614Z,17.80
2022-07-30T05:10:35.708Z,17.92
2022-07-30T05:15:40.258Z,17.87
2022-07-30T05:20:43.552Z,17.73
2022-07-30T05:25:46.522Z,17.90
2022-07-30T05:30:51.045Z,17.95
2022-07-30T05:35:54.971Z,18.05
2022-07-30T05:40:58.043Z,18.00
2022-07-30T05:46:02.881Z,18.12
2022-07-30T05:51:06.336Z,18.13
2022-07-30T05:56:09.452Z,17.95
2022-07-30T06:01:14.148Z,17.90
2022-07-30T06:06:22.432Z,17.83
2022-07-30T06:11:25.858Z,17.56
2022-07-30T06:16:31.324Z,17.70
2022-07-30T06:22:01.653Z,17.68
2022-07-30T06:26:57.256Z,17.70
2022-07-30T06:32:01.959Z,17.66
2022-07-30T06:37:04.986Z,17.68
2022-07-30T06:42:07.917Z,17.77
2022-07-30T06:47:12.859Z,17.79
2022-07-30T06:52:18.748Z,17.72
2022-07-30T06:57:21.996Z,17.62
2022-07-30T07:02:26.551Z,17.83
2022-07-30T07:07:41.374Z,17.95
2022-07-30T07:12:46.071Z,18.17
2022-07-30T07:17:50.661Z,18.22
2022-07-30T07:22:53.707Z,18.40
2022-07-30T07:28:11.893Z,18.56
2022-07-30T07:33:17.472Z,18.55
2022-07-30T07:38:20.892Z,18.64
2022-07-30T07:43:25.484Z,18.51
2022-07-30T07:48:29.929Z,18.52
2022-07-30T07:53:32.907Z,18.61
2022-07-30T07:58:35.855Z,18.64
2022-07-30T08:03:42.779Z,18.71
2022-07-30T08:08:46.159Z,18.72
2022-07-30T08:13:51.704Z,18.84
2022-07-30T08:18:57.520Z,18.94
2022-07-30T08:24:00.565Z,18.99
2022-07-30T08:29:04.281Z,19.11
2022-07-30T08:34:08.984Z,19.22
2022-07-30T08:39:11.917Z,19.21
2022-07-30T08:44:18.946Z,19.32
2022-07-30T08:49:23.760Z,19.60
2022-07-30T08:54:27.372Z,19.63
2022-07-30T08:59:59.486Z,19.67
2022-07-30T09:04:56.094Z,19.62
2022-07-30T09:09:59.326Z,19.68
2022-07-30T09:15:04.613Z,19.72
2022-07-30T09:20:10.897Z,19.83
2022-07-30T09:25:13.867Z,19.81
2022-07-30T09:30:17.646Z,19.94
2022-07-30T09:35:23.465Z,19.98
2022-07-30T09:40:32.188Z,19.91
2022-07-30T09:45:35.543Z,19.99
2022-07-30T09:50:50.029Z,20.11
2022-07-30T09:55:53.631Z,20.26
2022-07-30T10:00:59.808Z,20.28
2022-07-30T10:06:05.074Z,20.22
2022-07-30T10:11:11.350Z,20.27
2022-07-30T10:16:15.267Z,20.29
2022-07-30T10:21:21.076Z,20.13
2022-07-30T10:26:30.752Z,20.20
2022-07-30T10:31:49.159Z,20.12
2022-07-30T10:37:06.891Z,20.13
2022-07-30T10:42:21.768Z,20.20
2022-07-30T10:47:29.769Z,20.09
2022-07-30T10:52:47.159Z,19.87
2022-07-30T10:58:05.959Z,19.60
2022-07-30T11:03:20.498Z,19.35
2022-07-30T11:08:37.893Z,19.15
2022-07-30T11:13:54.451Z,19.08
2022-07-30T11:24:47.619Z,18.99
2022-07-30T11:29:52.095Z,18.91
2022-07-30T11:35:23.449Z,18.98
2022-07-30T11:40:29.514Z,18.95
2022-07-30T11:45:33.307Z,19.02
2022-07-30T11:50:38.466Z,19.17
2022-07-30T11:55:44.162Z,19.09
2022-07-30T12:00:48.296Z,19.10
2022-07-30T12:05:53.419Z,19.07
2022-07-30T12:10:59.958Z,19.10
2022-07-30T12:16:08.109Z,18.99
2022-07-30T12:21:17.839Z,19.01
2022-07-30T12:26:23.490Z,19.10
2022-07-30T12:31:27.787Z,19.12
2022-07-30T12:36:32.325Z,19.18
2022-07-30T12:41:44.227Z,19.25
2022-07-30T12:46:47.677Z,19.27
2022-07-30T12:51:52.700Z,19.12
2022-07-30T12:57:06.589Z,19.13
2022-07-30T13:02:10.027Z,19.07
2022-07-30T13:07:13.534Z,19.05
2022-07-30T13:12:18.333Z,18.84
2022-07-30T13:17:21.303Z,18.83
2022-07-30T13:22:24.199Z,18.87
2022-07-30T13:27:29.218Z,19.05
2022-07-30T13:32:32.331Z,19.10
2022-07-30T13:37:38.020Z,19.18
2022-07-30T13:42:43.128Z,19.37
2022-07-30T13:47:46.355Z,19.41
2022-07-30T13:52:49.607Z,19.53
2022-07-30T13:57:54.193Z,19.61
2022-07-30T14:02:57.055Z,19.82
2022-07-30T14:08:00.748Z,19.79
2022-07-30T14:13:06.318Z,19.96
2022-07-30T14:18:09.259Z,19.94
2022-07-30T14:23:12.283Z,19.92
2022-07-30T14:28:16.776Z,20.10
2022-07-30T14:33:19.798Z,20.28
2022-07-30T14:38:22.741Z,20.19
2022-07-30T14:43:30.577Z,20.15
2022-07-30T14:48:33.665Z,20.09
2022-07-30T14:53:36.924Z,20.02
2022-07-30T14:58:41.500Z,20.01
2022-07-30T15:03:44.724Z,20.00
2022-07-30T15:08:47.800Z,19.97
2022-07-30T15:13:52.295Z,19.89
2022-07-30T15:18:55.506Z,19.79
2022-07-30T15:23:58.459Z,19.89
2022-07-30T15:29:03.141Z,19.72
2022-07-30T15:34:11.163Z,19.74
2022-07-30T15:39:15.467Z,19.68
2022-07-30T15:44:20.528Z,19.61
2022-07-30T15:49:24.165Z,19.50
2022-07-30T15:54:27.153Z,19.43
2022-07-30T15:59:31.862Z,19.33
2022-07-30T16:04:34.703Z,19.27
2022-07-30T16:09:37.724Z,19.23
2022-07-30T16:14:42.863Z,19.20
2022-07-30T16:19:46.852Z,19.16
2022-07-30T16:24:50.091Z,19.17
2022-07-30T16:29:54.717Z,19.10
2022-07-30T16:34:57.701Z,19.09
2022-07-30T16:40:00.648Z,19.08
2022-07-30T16:45:05.726Z,19.07
2022-07-30T16:50:10.422Z,19.02
2022-07-30T16:55:13.575Z,18.95
2022-07-30T17:00:18.966Z,18.97
2022-07-30T17:05:21.844Z,18.97
2022-07-30T17:10:26.551Z,18.86
2022-07-30T17:15:33.309Z,18.92
2022-07-30T17:20:37.248Z,18.97
2022-07-30T17:25:40.283Z,19.00
2022-07-30T17:30:44.835Z,19.01
2022-07-30T17:35:47.705Z,19.03
2022-07-30T17:40:50.808Z,19.02
2022-07-30T17:45:55.175Z,19.00
2022-07-30T17:50:58.172Z,19.00
2022-07-30T17:56:05.702Z,18.96
2022-07-30T18:01:13.241Z,18.97
2022-07-30T18:06:16.464Z,18.89
2022-07-30T18:11:19.523Z,18.92
2022-07-30T18:16:24.613Z,18.82
2022-07-30T18:21:27.783Z,18.77
2022-07-30T18:26:36.817Z,18.67
2022-07-30T18:31:41.627Z,18.67
2022-07-30T18:36:44.730Z,18.61
2022-07-30T18:41:47.864Z,18.58
2022-07-30T18:46:52.246Z,18.48
2022-07-30T18:51:59.578Z,18.48
2022-07-30T18:57:03.451Z,18.43
2022-07-30T19:02:08.668Z,18.43
2022-07-30T19:07:12.021Z,18.35
2022-07-30T19:12:14.971Z,18.37
2022-07-30T19:17:19.628Z,18.34
2022-07-30T19:22:29.876Z,18.36
2022-07-30T19:27:33.127Z,18.36
2022-07-30T19:32:37.625Z,18.34
2022-07-30T19:37:40.621Z,18.24
2022-07-30T19:42:43.637Z,18.26
2022-07-30T19:47:48.962Z,18.24
2022-07-30T19:52:55.055Z,18.21
2022-07-30T19:57:58.102Z,18.22
2022-07-30T20:03:03.012Z,18.11
2022-07-30T20:08:08.008Z,18.00
2022-07-30T20:13:12.106Z,17.97
2022-07-30T20:18:17.365Z,18.03
2022-07-30T20:23:32.344Z,18.08
2022-07-30T20:28:35.584Z,17.99
2022-07-30T20:33:40.761Z,17.88
2022-07-30T20:38:47.306Z,17.90
2022-07-30T20:43:52.464Z,17.84
2022-07-30T20:48:59.332Z,17.72
2022-07-30T20:54:02.913Z,17.70
2022-07-30T20:59:06.837Z,17.61
2022-07-30T21:04:25.593Z,17.64
2022-07-30T21:09:49.819Z,17.60
2022-07-30T21:14:54.716Z,17.50
2022-07-30T21:19:59.483Z,17.51
2022-07-30T21:25:08.248Z,17.50
2022-07-30T21:30:12.514Z,17.50
2022-07-30T21:35:17.096Z,17.43
2022-07-30T21:40:24.640Z,17.36
2022-07-30T21:45:37.837Z,17.38
2022-07-30T21:50:43.177Z,17.34
2022-07-30T21:55:52.397Z,17.34
2022-07-30T22:01:16.221Z,17.31
2022-07-30T22:06:22.574Z,17.38
2022-07-30T22:11:27.200Z,17.43
2022-07-30T22:16:46.598Z,17.31
2022-07-30T22:21:51.426Z,17.34
2022-07-30T22:26:54.370Z,17.31
2022-07-30T22:31:59.961Z,17.26
2022-07-30T22:37:04.731Z,17.30
2022-07-30T22:42:16.367Z,17.18
2022-07-30T22:47:21.703Z,17.25
2022-07-30T22:52:55.860Z,17.20
2022-07-30T22:58:04.761Z,17.21
2022-07-30T23:03:07.842Z,17.17
2022-07-30T23:08:12.859Z,17.19
2022-07-30T23:13:15.683Z,17.13
2022-07-30T23:18:18.716Z,17.22
2022-07-30T23:23:23.568Z,17.17
2022-07-30T23:28:26.658Z,17.18
2022-07-30T23:33:30.828Z,17.16
2022-07-30T23:38:36.495Z,17.19
2022-07-30T23:43:40.036Z,17.14
2022-07-30T23:48:43.028Z,17.17
2022-07-30T23:53:47.695Z,17.20
2022-07-30T23:58:52.388Z,17.19
